Stations météo

Publicité
Rostrenen, France (7119): Température de l'air & dewpoint: 06.12.2018 20:00:00 - 12.12.2018 20:00:00 (CET)Rostrenen, France (7119): Vitesse du vent & gusts: 06.12.2018 20:00:00 - 12.12.2018 20:00:00 (CET)Rostrenen, France (7119): Direction du vent: 06.12.2018 20:00:00 - 12.12.2018 20:00:00 (CET)Rostrenen, France (7119): Quantités de précipitations: 06.12.2018 20:00:00 - 12.12.2018 20:00:00 (CET)
Date & Time tt [°C] td [°C] ff [km/h] ff [knt] fx [km/h] fx [knt] dd rr [mm]
12.12.2018 20:00:00 - - - - - - - -
12.12.2018 19:00:00 3,6 3,3 15 8 28 15 SE -
12.12.2018 18:00:00 4,1 3,8 11 6 28 15 SE 0,0
12.12.2018 17:00:00 4,4 4,1 13 7 24 13 SE 0,0
12.12.2018 16:00:00 4,8 4,5 11 6 22 12 SE 0,0
12.12.2018 15:00:00 4,8 4,5 13 7 21 11 ESE 0,0
12.12.2018 14:00:00 5,0 4,7 8 4 21 11 S 0,0
12.12.2018 13:00:00 4,8 4,4 11 6 18 10 S -
12.12.2018 12:00:00 4,6 4,2 8 4 16 9 ESE 0,0
12.12.2018 11:00:00 4,3 3,9 8 4 15 8 SE 0,0
12.12.2018 10:00:00 4,1 3,7 5 3 11 6 SE 0,0
12.12.2018 09:00:00 4,0 3,6 8 4 13 7 SSE 0,0
12.12.2018 08:00:00 3,9 3,5 8 4 13 7 S 0,0
12.12.2018 07:00:00 4,0 3,6 5 3 13 7 SE -
12.12.2018 06:00:00 3,9 3,5 8 4 18 10 S 0,0
12.12.2018 05:00:00 4,1 3,7 8 4 22 12 SSE 0,4
12.12.2018 04:00:00 4,6 4,2 13 7 26 14 ESE 0,0
12.12.2018 03:00:00 5,4 5,0 15 8 28 15 SW 0,2
12.12.2018 02:00:00 5,6 5,2 15 8 29 16 SE 0,8
12.12.2018 01:00:00 5,8 5,2 13 7 34 18 SSE -
12.12.2018 00:00:00 6,5 5,6 15 8 34 18 SSE 0,0
11.12.2018 23:00:00 6,7 5,8 16 9 34 18 SSE 0,0
11.12.2018 22:00:00 6,7 5,8 18 10 31 17 S 0,0
11.12.2018 21:00:00 6,6 5,7 13 7 28 15 SSE 0,0
11.12.2018 20:00:00 6,8 5,7 15 8 28 15 S 0,0
11.12.2018 19:00:00 6,8 5,7 15 8 29 16 S -
11.12.2018 18:00:00 6,5 5,3 13 7 29 16 SSE 0,0
11.12.2018 17:00:00 7,3 5,8 15 8 28 15 S 0,0
11.12.2018 16:00:00 7,7 6,0 15 8 28 15 S 0,0
11.12.2018 15:00:00 7,5 6,0 13 7 31 17 SSE 0,0
11.12.2018 14:00:00 7,1 5,4 16 9 29 16 S 0,0
11.12.2018 13:00:00 7,5 5,8 15 8 31 17 S -
11.12.2018 12:00:00 6,3 5,7 18 10 35 19 SSE 0,0
11.12.2018 11:00:00 4,9 4,6 11 6 18 10 SSE 0,0
11.12.2018 10:00:00 3,4 3,1 13 7 22 12 SE 0,0
11.12.2018 09:00:00 1,8 1,5 9 5 16 9 SE 0,0
11.12.2018 08:00:00 -0,1 -0,4 9 5 15 8 ENE 0,0
11.12.2018 07:00:00 0,5 0,2 8 4 11 6 E -
11.12.2018 06:00:00 0,7 0,4 8 4 11 6 ENE 0,0
11.12.2018 05:00:00 1,0 0,7 5 3 11 6 E 0,0
11.12.2018 04:00:00 2,4 2,0 4 2 8 4 SE 0,0
11.12.2018 03:00:00 2,5 2,1 4 2 8 4 ENE 0,0
11.12.2018 02:00:00 3,6 3,0 4 2 8 4 ESE 0,0
11.12.2018 01:00:00 3,2 2,5 2 1 8 4 ENE -
11.12.2018 00:00:00 5,2 4,5 4 2 9 5 SSW 0,0
10.12.2018 23:00:00 4,9 4,0 5 3 8 4 SSE 0,0
10.12.2018 22:00:00 6,0 4,5 2 1 5 3 SSW 0,0
10.12.2018 21:00:00 6,7 4,9 5 3 11 6 WSW 0,0
10.12.2018 20:00:00 7,1 4,9 8 4 13 7 WSW 0,0
10.12.2018 19:00:00 7,4 4,9 8 4 9 5 SW -
10.12.2018 18:00:00 8,7 5,1 4 2 11 6 WNW 0,0
10.12.2018 17:00:00 9,3 5,5 8 4 11 6 WSW 0,0
10.12.2018 16:00:00 9,6 5,6 4 2 13 7 NNW 0,0
10.12.2018 15:00:00 9,6 5,4 5 3 18 10 WNW 0,0
10.12.2018 14:00:00 10,0 5,4 9 5 22 12 NW 0,0
10.12.2018 13:00:00 9,2 5,7 8 4 15 8 W -
10.12.2018 12:00:00 7,9 6,2 5 3 9 5 WSW 0,0
10.12.2018 11:00:00 6,4 5,2 8 4 11 6 WSW 0,0
10.12.2018 10:00:00 5,5 4,5 8 4 11 6 WSW 0,0
10.12.2018 09:00:00 4,8 3,6 8 4 18 10 SW 0,0
10.12.2018 08:00:00 5,1 4,1 11 6 18 10 W 0,0
10.12.2018 07:00:00 5,5 4,1 9 5 26 14 WNW -
10.12.2018 06:00:00 5,8 4,1 13 7 29 16 WNW 0,0
10.12.2018 05:00:00 5,9 4,2 16 9 28 15 W 0,0
10.12.2018 04:00:00 6,3 4,5 15 8 26 14 W 0,0
10.12.2018 03:00:00 6,0 4,5 11 6 22 12 W 0,0
10.12.2018 02:00:00 6,2 4,5 13 7 22 12 WSW 0,0
10.12.2018 01:00:00 6,9 4,9 9 5 24 13 W -
10.12.2018 00:00:00 7,2 5,2 11 6 26 14 W 0,0
09.12.2018 23:00:00 7,0 5,1 9 5 22 12 WSW 0,0
09.12.2018 22:00:00 7,5 5,5 9 5 18 10 W 0,0
09.12.2018 21:00:00 7,5 5,1 8 4 28 15 W 0,0
09.12.2018 20:00:00 8,2 5,7 11 6 31 17 WNW 0,0
09.12.2018 19:00:00 8,8 6,1 16 9 39 21 WNW -
09.12.2018 18:00:00 8,9 5,5 21 11 52 28 NW 0,0
09.12.2018 17:00:00 9,3 5,8 22 12 55 30 WNW 0,0
09.12.2018 16:00:00 9,8 6,3 28 15 52 28 WNW 0,0
09.12.2018 15:00:00 9,9 5,7 26 14 65 35 NW 0,0
09.12.2018 14:00:00 10,2 6,3 29 16 59 32 WNW 0,2
09.12.2018 13:00:00 9,4 6,5 24 13 67 36 WNW -
09.12.2018 12:00:00 9,8 6,3 28 15 61 33 WNW 0,4
09.12.2018 11:00:00 9,5 7,4 26 14 59 32 WNW 0,2
09.12.2018 10:00:00 9,5 6,6 29 16 61 33 W 0,0
09.12.2018 09:00:00 8,6 6,2 24 13 57 31 W 0,2
09.12.2018 08:00:00 8,7 6,0 28 15 70 38 W 0,2
09.12.2018 07:00:00 8,7 5,4 24 13 59 32 W -
09.12.2018 06:00:00 8,9 4,1 24 13 57 31 W 0,0
09.12.2018 05:00:00 8,6 5,0 21 11 46 25 W 0,2
09.12.2018 04:00:00 8,9 5,5 24 13 74 40 W 0,0
09.12.2018 03:00:00 8,9 5,6 22 12 54 29 W 0,2
09.12.2018 02:00:00 9,2 7,1 24 13 63 34 W 0,0
09.12.2018 01:00:00 10,0 5,8 26 14 63 34 W -
09.12.2018 00:00:00 10,1 5,7 34 18 76 41 W 0,0
08.12.2018 23:00:00 10,5 7,7 37 20 76 41 WSW 0,0
08.12.2018 22:00:00 10,5 7,2 29 16 67 36 W 0,0
08.12.2018 21:00:00 10,7 7,2 34 18 72 39 W 0,0
08.12.2018 20:00:00 11,3 8,2 31 17 70 38 W 0,0
08.12.2018 19:00:00 11,3 8,3 29 16 68 37 W -
08.12.2018 18:00:00 11,4 9,3 31 17 70 38 W 0,0
08.12.2018 17:00:00 11,6 9,5 31 17 78 42 WSW 0,2
08.12.2018 16:00:00 11,8 11,2 28 15 74 40 WSW 0,4
08.12.2018 15:00:00 11,3 10,8 29 16 63 34 SW 0,4
08.12.2018 14:00:00 10,7 10,2 29 16 59 32 SW 0,4
08.12.2018 13:00:00 10,3 9,7 24 13 54 29 SW -
08.12.2018 12:00:00 10,0 9,4 24 13 52 28 WSW 0,2
08.12.2018 11:00:00 9,7 8,8 18 10 48 26 SW 0,0
08.12.2018 10:00:00 9,3 7,7 22 12 46 25 SW 0,0
08.12.2018 09:00:00 9,5 6,9 21 11 44 24 WSW 0,0
08.12.2018 08:00:00 9,3 6,0 22 12 50 27 WSW 0,0
08.12.2018 07:00:00 9,0 5,9 26 14 48 26 WSW -
08.12.2018 06:00:00 8,5 5,8 22 12 46 25 WSW 0,0
08.12.2018 05:00:00 8,2 6,3 16 9 50 27 W 0,0
08.12.2018 04:00:00 8,1 5,9 24 13 57 31 W 0,0
08.12.2018 03:00:00 7,9 5,0 22 12 52 28 WSW 0,0
08.12.2018 02:00:00 7,8 5,9 16 9 39 21 SW 0,0
08.12.2018 01:00:00 7,3 5,9 13 7 37 20 SW -
08.12.2018 00:00:00 7,5 4,8 22 12 55 30 WSW 0,0
07.12.2018 23:00:00 8,0 4,8 28 15 52 28 WSW 0,0
07.12.2018 22:00:00 7,3 4,8 21 11 48 26 WSW 0,0
07.12.2018 21:00:00 7,0 4,0 16 9 42 23 WSW 0,0
07.12.2018 20:00:00 7,1 3,9 18 10 41 22 W 0,0
07.12.2018 19:00:00 6,6 3,6 18 10 46 25 WSW -
07.12.2018 18:00:00 7,4 3,4 22 12 48 26 WSW 0,0
07.12.2018 17:00:00 7,4 3,6 15 8 70 38 W 0,2
07.12.2018 16:00:00 8,2 3,6 26 14 61 33 W 0,0
07.12.2018 15:00:00 8,7 4,5 26 14 57 31 W 0,0
07.12.2018 14:00:00 7,7 5,7 18 10 67 36 W 1,0
07.12.2018 13:00:00 9,5 6,6 22 12 52 28 W -
07.12.2018 12:00:00 9,1 7,4 16 9 42 23 W 0,0
07.12.2018 11:00:00 8,0 6,6 16 9 70 38 W 2,0
07.12.2018 10:00:00 9,6 8,5 29 16 70 38 WNW 3,0
07.12.2018 09:00:00 11,8 11,3 37 20 67 36 SSW 2,0
07.12.2018 08:00:00 11,3 11,0 34 18 63 34 SSW 1,0
07.12.2018 07:00:00 10,9 10,1 31 17 67 36 SSW -
07.12.2018 06:00:00 10,8 9,6 34 18 68 37 SW 0,2
07.12.2018 05:00:00 11,0 10,2 28 15 70 38 SW 0,0
07.12.2018 04:00:00 11,1 10,6 31 17 67 36 SW 0,0
07.12.2018 03:00:00 11,2 10,7 29 16 54 29 SW 0,0
07.12.2018 02:00:00 11,2 10,9 35 19 61 33 SW 0,2
07.12.2018 01:00:00 11,2 10,9 22 12 42 23 SSW -
07.12.2018 00:00:00 11,1 10,8 26 14 42 23 SW 0,0
06.12.2018 23:00:00 11,2 10,9 22 12 41 22 SW 0,0
06.12.2018 22:00:00 11,2 10,9 21 11 42 23 SW 0,0
06.12.2018 21:00:00 11,2 10,9 21 11 41 22 SW 0,0
06.12.2018 20:00:00 11,2 10,9 18 10 42 23 SW 0,2

tt = Température de l'air
td = dewpoint
ff = Vitesse du vent
fx = gusts
dd = Direction du vent
rr = Quantités de précipitations

stations d'obs. à proximité